Time;durP1;ratioP1;P1;durP2;ratioP2;P2;SDS_P1;SDS_P2;PMS_P1;PMS_P2;Temp;Humidity;BMP_temperature;BMP_pressure;BME280_temperature;BME280_humidity;BME280_pressure;Samples;Min_cycle;Max_cycle;Signal;HPM_P1;HPM_P2
2022/04/17 00:00:52;;;;;;;3.63;3.33;;;9.00;64.30;;;;;;5054079;28;20936;-61
2022/04/17 00:03:21;;;;;;;4.70;4.30;;;9.00;62.90;;;;;;5053960;28;20456;-61
2022/04/17 00:05:49;;;;;;;3.93;3.50;;;9.00;66.10;;;;;;5054442;28;20445;-60
2022/04/17 00:08:16;;;;;;;4.17;3.77;;;9.00;63.90;;;;;;5054144;28;20469;-61
2022/04/17 00:10:45;;;;;;;7.00;3.90;;;8.90;64.40;;;;;;5053827;28;20445;-61
2022/04/17 00:13:14;;;;;;;4.90;4.47;;;8.90;64.10;;;;;;5054125;28;20459;-61
2022/04/17 00:15:41;;;;;;;4.80;4.30;;;8.80;65.20;;;;;;5053602;28;20489;-61
2022/04/17 00:18:08;;;;;;;4.07;3.70;;;8.70;65.50;;;;;;5053932;28;20922;-61
2022/04/17 00:20:38;;;;;;;6.73;4.03;;;8.70;67.10;;;;;;5054087;28;20445;-61
2022/04/17 00:23:05;;;;;;;4.90;4.50;;;8.70;66.60;;;;;;5053936;28;20445;-60
2022/04/17 00:25:32;;;;;;;5.90;4.23;;;8.70;67.40;;;;;;5053866;28;20457;-61
2022/04/17 00:27:59;;;;;;;5.20;4.00;;;8.60;67.90;;;;;;5053596;28;20556;-61
2022/04/17 00:30:28;;;;;;;8.37;4.37;;;8.50;67.30;;;;;;5053516;28;20864;-61
2022/04/17 00:32:55;;;;;;;6.60;5.13;;;8.40;68.30;;;;;;5053500;28;20446;-61
2022/04/17 00:35:22;;;;;;;5.80;4.33;;;8.40;66.80;;;;;;5053832;28;20456;-61
2022/04/17 00:37:49;;;;;;;4.17;3.80;;;8.30;67.50;;;;;;5053187;28;20489;-61
2022/04/17 00:40:17;;;;;;;6.40;4.20;;;8.20;67.40;;;;;;5053314;28;20460;-60
2022/04/17 00:42:44;;;;;;;4.30;3.90;;;8.20;66.80;;;;;;5053542;28;20457;-61
2022/04/17 00:45:11;;;;;;;4.90;4.23;;;8.30;68.40;;;;;;5053657;28;20502;-61
2022/04/17 00:47:40;;;;;;;4.40;4.00;;;8.30;67.10;;;;;;5053188;28;20544;-61
2022/04/17 00:50:08;;;;;;;4.63;4.20;;;8.40;69.40;;;;;;5053279;28;20433;-61
2022/04/17 00:52:36;;;;;;;5.13;4.83;;;8.40;69.80;;;;;;5053304;28;20449;-60
2022/04/17 00:55:06;;;;;;;5.97;3.97;;;8.30;68.70;;;;;;5053157;28;20459;-60
2022/04/17 00:57:34;;;;;;;4.07;3.73;;;8.20;68.70;;;;;;5053085;28;20606;-60
2022/04/17 01:00:04;;;;;;;4.93;3.70;;;8.10;70.70;;;;;;5053146;28;20457;-60
2022/04/17 01:02:32;;;;;;;4.50;3.90;;;8.10;70.10;;;;;;5053461;28;20524;-60
2022/04/17 01:05:00;;;;;;;4.03;3.73;;;8.10;70.80;;;;;;5053372;28;20445;-60
2022/04/17 01:07:27;;;;;;;4.50;4.10;;;8.00;70.10;;;;;;5053343;28;20457;-60
2022/04/17 01:09:56;;;;;;;8.60;3.77;;;8.00;70.20;;;;;;5053114;28;20460;-60
2022/04/17 01:12:23;;;;;;;6.00;3.77;;;8.00;71.20;;;;;;5055915;28;20457;-60
2022/04/17 01:14:51;;;;;;;4.20;3.80;;;8.00;71.30;;;;;;5057347;28;20456;-60
2022/04/17 01:17:18;;;;;;;5.50;4.47;;;8.00;72.10;;;;;;5057370;28;20572;-60
2022/04/17 01:19:46;;;;;;;4.70;4.20;;;7.90;70.00;;;;;;5057341;28;20548;-60
2022/04/17 01:22:15;;;;;;;4.43;4.03;;;7.90;71.10;;;;;;5056988;28;20445;-60
2022/04/17 01:27:28;;;;;;;4.17;3.80;;;7.90;71.10;;;;;;5057134;28;20906;-59
2022/04/17 01:29:55;;;;;;;5.63;4.00;;;7.80;70.90;;;;;;5055896;28;20445;-60
2022/04/17 01:32:23;;;;;;;4.57;3.53;;;7.90;73.00;;;;;;5057182;28;20429;-60
2022/04/17 01:34:52;;;;;;;4.63;3.90;;;7.90;71.70;;;;;;5056847;28;20814;-59
2022/04/17 01:37:20;;;;;;;4.23;3.93;;;7.80;73.10;;;;;;5056551;28;20503;-60
2022/04/17 01:39:48;;;;;;;4.63;4.27;;;;;;;;;;5056687;28;20800;-60
2022/04/17 01:42:16;;;;;;;4.50;4.00;;;7.80;71.90;;;;;;5057037;28;20445;-60
2022/04/17 01:44:44;;;;;;;4.10;3.80;;;7.80;71.90;;;;;;5056792;28;20789;-60
2022/04/17 01:47:11;;;;;;;3.97;3.67;;;7.70;72.10;;;;;;5056747;28;20535;-60
2022/04/17 01:49:38;;;;;;;5.20;4.10;;;7.70;71.80;;;;;;5056835;28;20444;-60
2022/04/17 01:52:06;;;;;;;4.77;3.97;;;7.60;73.30;;;;;;5056555;28;20449;-60
2022/04/17 01:54:34;;;;;;;4.23;3.80;;;7.60;72.80;;;;;;5056714;28;20449;-60
2022/04/17 01:57:01;;;;;;;4.20;3.80;;;7.50;73.60;;;;;;5056768;28;20495;-60
2022/04/17 01:59:28;;;;;;;4.10;3.80;;;7.40;74.30;;;;;;5056424;28;20524;-60
2022/04/17 02:01:56;;;;;;;4.43;3.33;;;7.50;74.70;;;;;;5056598;28;20441;-60
2022/04/17 02:04:26;;;;;;;5.27;3.80;;;7.50;74.00;;;;;;5056242;28;20484;-60
2022/04/17 02:06:53;;;;;;;4.80;4.27;;;7.50;74.90;;;;;;5056300;28;20783;-60
2022/04/17 02:09:20;;;;;;;3.77;3.47;;;7.40;75.90;;;;;;5056105;28;20469;-60
2022/04/17 02:11:49;;;;;;;4.10;3.80;;;7.40;74.90;;;;;;5056433;28;20445;-59
2022/04/17 02:14:16;;;;;;;3.60;3.30;;;7.30;74.10;;;;;;5056377;28;20449;-60
2022/04/17 02:16:43;;;;;;;5.90;5.40;;;7.20;74.50;;;;;;5055881;28;21009;-60
2022/04/17 02:19:10;;;;;;;5.10;3.67;;;7.10;74.60;;;;;;5055883;28;20979;-59
2022/04/17 02:21:38;;;;;;;4.23;3.87;;;7.00;74.90;;;;;;5056531;28;20896;-60
2022/04/17 02:24:05;;;;;;;3.97;3.70;;;7.00;76.00;;;;;;5055775;28;20977;-60
2022/04/17 02:26:33;;;;;;;4.20;3.80;;;7.00;76.80;;;;;;5056115;28;20943;-60
2022/04/17 02:29:02;;;;;;;5.40;5.00;;;7.00;75.90;;;;;;5055766;28;20469;-60
2022/04/17 02:31:30;;;;;;;5.30;4.90;;;7.00;75.50;;;;;;5055665;28;20473;-60
2022/04/17 02:33:59;;;;;;;4.50;4.10;;;7.00;75.70;;;;;;5055995;28;20456;-60
2022/04/17 02:36:30;;;;;;;5.20;4.40;;;7.10;77.90;;;;;;5055574;28;20468;-59
2022/04/17 02:38:58;;;;;;;3.77;3.50;;;7.10;76.60;;;;;;5055609;28;20548;-60
2022/04/17 02:41:25;;;;;;;4.03;3.77;;;7.00;76.20;;;;;;5055570;28;20449;-60
2022/04/17 02:43:52;;;;;;;5.37;4.43;;;6.90;76.20;;;;;;5055745;28;20499;-59
2022/04/17 02:49:06;;;;;;;4.10;3.77;;;6.60;77.70;;;;;;5055521;28;20827;-60
2022/04/17 02:51:34;;;;;;;5.00;4.17;;;6.60;79.00;;;;;;5055331;28;20450;-60
2022/04/17 02:54:01;;;;;;;3.80;3.50;;;6.60;78.30;;;;;;5055301;28;20449;-60
2022/04/17 02:56:28;;;;;;;7.17;3.90;;;6.60;79.50;;;;;;5055588;28;20940;-60
2022/04/17 02:58:55;;;;;;;6.03;4.67;;;6.60;78.50;;;;;;5055454;28;20469;-59
2022/04/17 03:06:53;;;;;;;5.40;4.37;;;6.40;79.00;;;;;;5055261;28;20515;-59
2022/04/17 03:09:20;;;;;;;4.50;4.10;;;6.30;80.30;;;;;;5055054;28;20480;-59
2022/04/17 03:11:48;;;;;;;4.57;3.40;;;6.30;80.10;;;;;;5055008;28;20445;-60
2022/04/17 03:14:15;;;;;;;6.73;3.97;;;6.40;80.40;;;;;;5054950;28;20939;-59
2022/04/17 03:16:43;;;;;;;4.33;3.93;;;6.40;80.20;;;;;;5054903;28;20495;-59
2022/04/17 03:19:11;;;;;;;5.73;4.90;;;6.50;79.00;;;;;;5055166;28;20472;-59
2022/04/17 03:21:38;;;;;;;5.00;4.00;;;6.40;79.80;;;;;;5055123;28;20464;-60
2022/04/17 03:24:08;;;;;;;4.33;4.03;;;6.40;79.70;;;;;;5055044;28;20548;-59
2022/04/17 03:26:36;;;;;;;4.40;4.00;;;6.30;80.00;;;;;;5055243;28;20548;-59
2022/04/17 03:29:04;;;;;;;4.80;4.40;;;6.30;80.60;;;;;;5054559;28;20535;-60
2022/04/17 03:31:31;;;;;;;7.97;4.00;;;6.30;80.50;;;;;;5054512;28;20477;-59
2022/04/17 03:33:59;;;;;;;4.53;4.13;;;6.30;80.40;;;;;;5054361;28;20451;-59
2022/04/17 03:36:26;;;;;;;5.00;3.70;;;6.30;79.60;;;;;;5054501;28;20946;-59
2022/04/17 03:38:54;;;;;;;4.27;3.97;;;6.20;79.80;;;;;;5054404;28;20465;-59
2022/04/17 03:41:21;;;;;;;4.63;4.10;;;6.20;80.00;;;;;;5054546;28;20961;-59
2022/04/17 03:43:48;;;;;;;4.37;3.97;;;6.20;80.50;;;;;;5054372;28;20933;-59
2022/04/17 03:46:16;;;;;;;4.97;4.47;;;;;;;;;;5054531;28;20450;-60
2022/04/17 03:48:43;;;;;;;4.30;3.90;;;6.10;79.40;;;;;;5054159;28;21027;-59
2022/04/17 03:51:11;;;;;;;4.83;4.43;;;6.00;80.60;;;;;;5054187;28;20479;-60
2022/04/17 03:53:38;;;;;;;4.63;4.23;;;5.90;80.90;;;;;;5054455;28;20446;-59
2022/04/17 03:56:06;;;;;;;4.03;3.63;;;5.90;81.10;;;;;;5054340;28;20450;-59
2022/04/17 03:58:33;;;;;;;4.50;3.83;;;6.00;82.50;;;;;;5054648;28;20465;-59
2022/04/17 04:01:00;;;;;;;5.10;4.70;;;6.10;81.70;;;;;;5054366;28;20467;-59
2022/04/17 04:03:28;;;;;;;4.50;4.20;;;6.10;81.30;;;;;;5054008;28;20940;-59
2022/04/17 04:05:55;;;;;;;4.73;4.20;;;6.10;82.80;;;;;;5053985;28;20511;-59
2022/04/17 04:08:23;;;;;;;4.40;4.10;;;6.10;82.60;;;;;;5054092;28;20481;-59
2022/04/17 04:10:50;;;;;;;4.50;4.20;;;6.20;81.80;;;;;;5054166;28;20445;-59
2022/04/17 04:13:19;;;;;;;4.40;4.00;;;6.10;82.10;;;;;;5054184;28;20446;-59
2022/04/17 04:15:46;;;;;;;4.33;4.03;;;6.00;80.20;;;;;;5053989;28;20544;-59
2022/04/17 04:18:13;;;;;;;4.83;4.33;;;6.00;80.10;;;;;;5053924;28;20487;-59
2022/04/17 04:20:40;;;;;;;6.90;3.90;;;5.90;80.50;;;;;;5053765;28;20456;-59
2022/04/17 04:23:07;;;;;;;4.47;4.07;;;5.80;80.60;;;;;;5053653;28;20449;-59
2022/04/17 04:25:36;;;;;;;5.40;4.67;;;5.80;82.50;;;;;;5053880;28;20854;-59
2022/04/17 04:30:48;;;;;;;6.37;3.90;;;6.00;82.30;;;;;;5053505;28;20472;-59
2022/04/17 04:33:15;;;;;;;6.03;4.17;;;6.00;81.70;;;;;;5053772;28;20473;-59
2022/04/17 04:35:42;;;;;;;5.00;4.60;;;6.00;83.80;;;;;;5053463;28;20454;-59
2022/04/17 04:38:10;;;;;;;4.73;4.33;;;6.10;84.70;;;;;;5053431;28;20972;-59
2022/04/17 04:40:38;;;;;;;5.00;4.27;;;6.10;82.80;;;;;;5053675;28;20445;-59
2022/04/17 04:43:05;;;;;;;5.00;4.60;;;5.90;82.80;;;;;;5053632;28;20445;-59
2022/04/17 04:49:29;;;;;;;4.70;4.30;;;5.80;82.20;;;;;;5053299;28;20484;-60
2022/04/17 04:51:05;;;;;;;5.70;3.97;;;5.90;84.50;;;;;;5053188;28;21001;-59
2022/04/17 04:53:32;;;;;;;5.00;3.70;;;5.90;84.70;;;;;;5053228;28;21050;-59
2022/04/17 04:56:01;;;;;;;5.13;4.43;;;5.90;84.00;;;;;;5053499;28;20457;-59
2022/04/17 04:58:28;;;;;;;6.43;4.37;;;5.90;83.80;;;;;;5053441;28;20472;-59
2022/04/17 05:00:55;;;;;;;4.93;4.53;;;5.90;84.10;;;;;;5053490;28;20452;-59
2022/04/17 05:03:22;;;;;;;5.07;4.57;;;6.00;86.80;;;;;;5053407;28;20471;-58
2022/04/17 05:05:49;;;;;;;5.23;4.83;;;5.90;84.60;;;;;;5053310;28;20559;-60
2022/04/17 05:08:17;;;;;;;4.47;4.10;;;6.00;86.30;;;;;;5053301;28;20485;-59
2022/04/17 05:10:44;;;;;;;4.73;4.30;;;6.00;85.20;;;;;;5053340;28;20855;-59
2022/04/17 05:13:12;;;;;;;6.83;4.17;;;6.10;86.40;;;;;;5052995;28;20924;-58
2022/04/17 05:15:39;;;;;;;6.37;5.03;;;6.10;86.30;;;;;;5053008;28;20540;-58
2022/04/17 05:18:07;;;;;;;4.50;4.17;;;6.10;85.30;;;;;;5052882;28;20468;-58
2022/04/17 05:20:34;;;;;;;8.73;4.70;;;6.10;82.50;;;;;;5053252;28;20631;-60
2022/04/17 05:23:15;;;;;;;5.63;5.03;;;6.00;85.40;;;;;;5053022;28;20448;-58
2022/04/17 05:25:43;;;;;;;4.50;4.20;;;6.10;84.50;;;;;;5053290;28;20911;-58
2022/04/17 05:28:10;;;;;;;4.40;4.00;;;6.10;83.70;;;;;;5053059;28;20496;-58
2022/04/17 05:30:38;;;;;;;5.40;4.57;;;6.00;82.80;;;;;;5052862;28;20813;-58
2022/04/17 05:33:06;;;;;;;6.20;5.00;;;6.00;85.20;;;;;;5052885;28;20962;-58
2022/04/17 05:35:33;;;;;;;4.43;4.10;;;6.00;84.30;;;;;;5052774;28;20453;-58
2022/04/17 05:38:00;;;;;;;5.17;4.43;;;6.00;85.00;;;;;;5053045;28;20461;-58
2022/04/17 05:40:28;;;;;;;5.33;4.67;;;6.10;84.70;;;;;;5052775;28;20528;-59
2022/04/17 05:42:56;;;;;;;5.27;4.77;;;6.00;83.10;;;;;;5052680;28;20457;-58
2022/04/17 05:45:23;;;;;;;4.83;4.30;;;6.20;84.70;;;;;;5052862;28;20446;-59
2022/04/17 05:47:52;;;;;;;5.13;4.43;;;6.10;83.00;;;;;;5052907;28;20495;-58
2022/04/17 05:50:19;;;;;;;4.83;4.43;;;6.10;84.40;;;;;;5052695;28;20449;-59
2022/04/17 05:52:47;;;;;;;5.93;4.20;;;6.10;82.50;;;;;;5052891;28;20449;-59
2022/04/17 05:55:14;;;;;;;5.77;4.53;;;6.20;82.40;;;;;;5052937;28;20784;-59
2022/04/17 05:57:42;;;;;;;4.77;4.37;;;6.30;82.90;;;;;;5054377;28;20802;-59
2022/04/17 06:00:11;;;;;;;5.70;4.03;;;6.30;82.10;;;;;;5056337;28;20453;-59
2022/04/17 06:02:39;;;;;;;6.03;4.30;;;6.30;83.30;;;;;;5056292;28;20536;-59
2022/04/17 06:05:08;;;;;;;5.20;4.70;;;6.30;82.90;;;;;;5056607;28;20453;-59
2022/04/17 06:07:35;;;;;;;4.60;4.20;;;6.30;83.00;;;;;;5056053;28;20492;-58
2022/04/17 06:10:03;;;;;;;5.03;4.63;;;6.40;82.50;;;;;;5056440;28;20445;-59
2022/04/17 06:12:30;;;;;;;4.67;4.27;;;6.50;82.30;;;;;;5056495;28;20445;-59
2022/04/17 06:14:57;;;;;;;4.10;3.80;;;6.70;82.50;;;;;;5056266;28;20449;-59
2022/04/17 06:17:24;;;;;;;5.33;4.20;;;6.80;82.10;;;;;;5056242;28;20465;-58
2022/04/17 06:19:52;;;;;;;5.80;4.57;;;6.80;82.10;;;;;;5056094;28;20453;-58
2022/04/17 06:22:21;;;;;;;4.70;4.30;;;6.90;81.80;;;;;;5055905;28;20460;-58
2022/04/17 06:24:49;;;;;;;4.30;3.90;;;6.90;81.40;;;;;;5056030;28;20449;-58
2022/04/17 06:27:16;;;;;;;4.43;4.03;;;6.90;82.10;;;;;;5056156;28;20437;-58
2022/04/17 06:29:43;;;;;;;3.90;3.60;;;6.90;81.10;;;;;;5055737;28;20483;-59
2022/04/17 06:32:11;;;;;;;4.70;4.30;;;6.90;80.10;;;;;;5055548;28;20477;-58
2022/04/17 06:34:38;;;;;;;4.37;3.60;;;6.90;79.60;;;;;;5055760;28;20448;-58
2022/04/17 06:37:05;;;;;;;3.93;3.53;;;7.00;79.00;;;;;;5056030;28;20457;-58
2022/04/17 06:39:34;;;;;;;4.10;3.80;;;7.10;80.60;;;;;;5055850;28;20441;-58
2022/04/17 06:42:01;;;;;;;5.23;3.60;;;7.20;78.00;;;;;;5055914;28;20474;-58
2022/04/17 06:44:28;;;;;;;4.70;4.27;;;7.30;79.00;;;;;;5055780;28;20446;-58
2022/04/17 06:46:55;;;;;;;5.63;3.90;;;7.40;79.00;;;;;;5055309;28;20445;-58
2022/04/17 06:49:22;;;;;;;5.67;4.77;;;7.50;77.40;;;;;;5055349;28;20559;-58
2022/04/17 06:51:49;;;;;;;4.20;3.90;;;7.50;77.30;;;;;;5055716;28;20449;-58
2022/04/17 06:54:17;;;;;;;5.30;3.97;;;7.50;75.40;;;;;;5055280;28;20460;-60
2022/04/17 06:56:45;;;;;;;6.90;3.53;;;7.50;75.60;;;;;;5055779;28;20464;-58
2022/04/17 06:59:12;;;;;;;4.00;3.70;;;7.60;76.70;;;;;;5055255;28;20959;-58
2022/04/17 07:01:39;;;;;;;5.87;3.70;;;7.70;76.20;;;;;;5055511;28;20464;-58
2022/04/17 07:04:06;;;;;;;3.93;3.63;;;7.80;73.80;;;;;;5055106;28;20454;-58
2022/04/17 07:06:33;;;;;;;4.07;3.77;;;7.90;75.90;;;;;;5055436;28;20445;-58
2022/04/17 07:09:01;;;;;;;5.13;4.27;;;7.90;76.30;;;;;;5053811;28;20516;-58
2022/04/17 07:11:29;;;;;;;4.10;3.80;;;7.90;74.70;;;;;;5055299;28;20453;-58
2022/04/17 07:13:58;;;;;;;6.07;3.97;;;7.90;73.90;;;;;;5055310;28;20453;-58
2022/04/17 07:16:25;;;;;;;3.57;3.27;;;8.00;75.00;;;;;;5055136;28;20558;-59
2022/04/17 07:18:52;;;;;;;3.40;3.20;;;8.10;74.90;;;;;;5055108;28;20465;-59
2022/04/17 07:21:19;;;;;;;4.00;3.60;;;8.20;73.70;;;;;;5054850;28;20924;-59
2022/04/17 07:23:47;;;;;;;4.00;3.70;;;8.30;74.70;;;;;;5054962;28;20537;-58
2022/04/17 07:26:15;;;;;;;3.50;3.30;;;8.40;73.50;;;;;;5055052;28;20495;-59
2022/04/17 07:28:42;;;;;;;4.03;3.70;;;8.40;70.80;;;;;;5054575;28;20485;-59
2022/04/17 07:31:10;;;;;;;5.40;4.40;;;8.50;73.20;;;;;;5054541;28;20823;-59
2022/04/17 07:33:38;;;;;;;3.93;3.60;;;8.60;74.90;;;;;;5054808;28;20460;-59
2022/04/17 07:36:05;;;;;;;4.73;4.10;;;8.70;73.20;;;;;;5054929;28;20457;-59
2022/04/17 07:38:32;;;;;;;5.80;3.97;;;8.80;70.10;;;;;;5054707;28;20548;-59
2022/04/17 07:40:59;;;;;;;3.07;2.87;;;9.00;71.50;;;;;;5054719;28;20457;-59
2022/04/17 07:43:26;;;;;;;4.20;3.80;;;9.00;68.80;;;;;;5054401;28;20944;-58
2022/04/17 07:45:53;;;;;;;3.60;3.30;;;9.00;70.10;;;;;;5054742;28;20453;-58
2022/04/17 07:48:22;;;;;;;3.53;3.23;;;9.00;71.00;;;;;;5054122;28;20538;-59
2022/04/17 07:50:52;;;;;;;3.60;3.30;;;9.10;69.70;;;;;;5054335;28;20450;-59
2022/04/17 07:53:19;;;;;;;4.53;3.30;;;9.10;70.00;;;;;;5054318;28;20909;-59
2022/04/17 07:55:47;;;;;;;8.03;3.53;;;9.20;70.40;;;;;;5054030;28;20469;-60
2022/04/17 07:58:23;;;;;;;4.40;3.47;;;9.20;68.50;;;;;;5054084;28;20556;-59
2022/04/17 08:00:57;;;;;;;3.80;3.10;;;9.20;66.80;;;;;;5054165;28;20430;-59
2022/04/17 08:03:46;;;;;;;3.30;3.00;;;9.40;65.90;;;;;;5054426;28;20434;-59
2022/04/17 08:06:15;;;;;;;3.80;2.87;;;9.50;63.60;;;;;;5054297;28;20444;-59
2022/04/17 08:08:43;;;;;;;3.30;3.00;;;9.60;63.80;;;;;;5054074;28;20580;-59
2022/04/17 08:11:12;;;;;;;3.90;3.37;;;9.80;62.00;;;;;;5054109;28;20816;-59
2022/04/17 08:13:40;;;;;;;4.07;3.43;;;9.80;62.70;;;;;;5053818;28;20441;-59
2022/04/17 08:16:08;;;;;;;3.90;3.20;;;9.90;60.70;;;;;;5053610;28;20935;-58
2022/04/17 08:18:37;;;;;;;6.03;3.70;;;10.00;60.20;;;;;;5053882;28;20492;-59
2022/04/17 08:21:05;;;;;;;3.73;3.43;;;10.10;61.40;;;;;;5053471;28;20450;-59
2022/04/17 08:23:32;;;;;;;4.70;2.90;;;10.10;60.90;;;;;;5054019;28;20455;-58
2022/04/17 08:25:59;;;;;;;5.80;3.37;;;10.50;61.00;;;;;;5053730;28;20547;-60
2022/04/17 08:28:27;;;;;;;3.43;3.13;;;11.40;64.10;;;;;;5053366;28;20485;-59
2022/04/17 08:30:55;;;;;;;3.47;3.07;;;12.40;60.00;;;;;;5053544;28;20480;-60
2022/04/17 08:33:22;;;;;;;3.47;3.07;;;13.20;58.60;;;;;;5053488;28;20456;-59
2022/04/17 08:35:50;;;;;;;3.17;2.73;;;13.70;58.10;;;;;;5053439;28;20944;-59
2022/04/17 08:38:19;;;;;;;3.13;2.93;;;;;;;;;;5053696;28;20556;-61
2022/04/17 08:40:47;;;;;;;3.20;3.00;;;14.80;55.90;;;;;;5053352;28;20492;-59
2022/04/17 08:43:14;;;;;;;3.23;2.97;;;14.90;56.20;;;;;;5053524;28;20477;-59
2022/04/17 08:45:41;;;;;;;4.17;3.07;;;15.70;56.20;;;;;;5053266;28;20453;-59
2022/04/17 08:48:08;;;;;;;2.93;2.73;;;15.50;56.40;;;;;;5053386;28;20475;-59
2022/04/17 08:50:36;;;;;;;3.53;3.23;;;15.30;55.30;;;;;;5053156;28;20932;-59
2022/04/17 08:53:06;;;;;;;2.83;2.63;;;15.30;54.80;;;;;;5053229;28;20548;-59
2022/04/17 08:55:34;;;;;;;3.10;2.90;;;15.30;55.10;;;;;;5053231;28;20457;-59
2022/04/17 08:58:01;;;;;;;3.00;2.80;;;;;;;;;;5053334;28;20480;-59
2022/04/17 09:00:28;;;;;;;3.53;3.23;;;16.30;54.90;;;;;;5053114;28;20803;-59
2022/04/17 09:02:55;;;;;;;4.70;3.10;;;16.30;53.30;;;;;;5053429;28;20460;-59
2022/04/17 09:05:22;;;;;;;3.63;2.70;;;16.70;54.20;;;;;;5053303;28;20445;-59
2022/04/17 09:07:51;;;;;;;2.93;2.70;;;16.50;54.00;;;;;;5053465;28;20465;-60
2022/04/17 09:10:27;;;;;;;3.90;2.83;;;16.20;53.70;;;;;;5052988;28;20481;-59
2022/04/17 09:12:55;;;;;;;2.90;2.57;;;16.80;54.40;;;;;;5053030;28;20445;-59
2022/04/17 09:15:26;;;;;;;5.53;3.00;;;17.10;52.60;;;;;;5052899;28;20943;-59
2022/04/17 09:17:54;;;;;;;3.30;3.00;;;17.60;53.40;;;;;;5053286;28;20461;-59
2022/04/17 09:20:22;;;;;;;3.00;2.70;;;17.30;52.40;;;;;;5052846;28;20928;-59
2022/04/17 09:22:51;;;;;;;3.20;2.90;;;18.10;51.90;;;;;;5053056;28;20554;-60
2022/04/17 09:25:18;;;;;;;3.40;2.67;;;18.60;52.90;;;;;;5052871;28;20461;-60
2022/04/17 09:28:04;;;;;;;3.57;2.57;;;18.70;51.20;;;;;;5053209;28;20963;-60
2022/04/17 09:30:33;;;;;;;3.57;3.27;;;19.00;50.50;;;;;;5053070;28;20568;-60
2022/04/17 09:33:05;;;;;;;2.50;2.30;;;18.90;49.90;;;;;;5054903;28;20532;-60
2022/04/17 09:35:32;;;;;;;3.93;2.63;;;19.00;47.20;;;;;;5056816;28;20491;-60
2022/04/17 09:38:01;;;;;;;3.17;2.33;;;18.80;48.50;;;;;;5057011;28;20487;-60
2022/04/17 09:40:29;;;;;;;2.90;2.70;;;18.90;46.80;;;;;;5056649;28;20947;-60
2022/04/17 09:43:11;;;;;;;3.00;2.53;;;18.80;47.50;;;;;;5056851;28;20449;-60
2022/04/17 09:45:56;;;;;;;2.53;2.33;;;18.60;46.40;;;;;;5056765;28;20647;-60
2022/04/17 09:48:23;;;;;;;3.05;2.85;;;18.50;48.40;;;;;;5055686;28;20472;-60
2022/04/17 09:50:50;;;;;;;2.70;2.50;;;18.70;47.50;;;;;;5056894;28;20477;-60
2022/04/17 09:53:34;;;;;;;2.77;2.50;;;18.70;46.40;;;;;;5056407;28;20935;-60
2022/04/17 09:56:09;;;;;;;2.43;2.23;;;19.70;48.20;;;;;;5056589;28;20981;-60
2022/04/17 09:58:45;;;;;;;4.00;2.63;;;19.40;47.10;;;;;;5056633;28;20475;-60
2022/04/17 10:01:16;;;;;;;3.90;3.17;;;19.50;46.50;;;;;;5056338;28;20478;-60
2022/04/17 10:03:43;;;;;;;2.80;2.60;;;19.30;47.80;;;;;;5056715;28;20429;-60
2022/04/17 10:06:13;;;;;;;2.80;2.50;;;20.10;46.70;;;;;;5056653;28;20548;-60
2022/04/17 10:08:44;;;;;;;3.30;3.00;;;20.40;47.60;;;;;;5056353;28;20473;-60
2022/04/17 10:11:13;;;;;;;4.23;2.90;;;20.00;44.90;;;;;;5056398;28;20430;-60
2022/04/17 10:13:42;;;;;;;3.57;2.60;;;19.70;47.00;;;;;;5056398;28;20539;-60
2022/04/17 10:16:16;;;;;;;2.30;2.10;;;20.20;46.20;;;;;;5056242;28;20532;-60
2022/04/17 10:18:45;;;;;;;3.17;2.43;;;20.20;46.40;;;;;;5056210;28;20465;-59
2022/04/17 10:21:15;;;;;;;4.53;3.10;;;20.60;45.70;;;;;;5056236;28;20512;-60
2022/04/17 10:23:45;;;;;;;3.87;2.40;;;20.10;44.30;;;;;;5056220;28;20518;-60
2022/04/17 10:26:15;;;;;;;3.20;2.00;;;19.90;45.70;;;;;;5056241;28;20544;-59
2022/04/17 10:28:51;;;;;;;2.70;2.50;;;19.90;45.00;;;;;;5055974;28;20538;-60
2022/04/17 10:31:20;;;;;;;2.43;2.23;;;19.70;43.40;;;;;;5055890;28;21028;-60
2022/04/17 10:34:22;;;;;;;3.23;2.43;;;20.20;44.70;;;;;;5056164;28;20456;-60
2022/04/17 10:37:03;;;;;;;3.37;2.40;;;;;;;;;;5053995;28;20495;-60
2022/04/17 10:39:35;;;;;;;2.60;2.40;;;21.60;45.30;;;;;;5055806;28;20450;-60
2022/04/17 10:42:02;;;;;;;4.13;2.00;;;20.60;43.40;;;;;;5055692;28;20892;-60
2022/04/17 10:44:37;;;;;;;3.00;2.50;;;20.20;43.80;;;;;;5054390;28;20456;-60
2022/04/17 10:47:05;;;;;;;2.30;2.10;;;19.80;44.10;;;;;;5055566;28;20433;-60
2022/04/17 10:49:32;;;;;;;2.40;2.20;;;20.60;44.50;;;;;;5055506;28;20508;-60
2022/04/17 10:52:00;;;;;;;5.13;2.67;;;21.20;43.40;;;;;;5055727;28;20453;-60
2022/04/17 10:54:51;;;;;;;3.27;2.53;;;21.70;42.70;;;;;;5055345;28;20946;-60
2022/04/17 10:57:24;;;;;;;3.23;2.17;;;22.40;43.20;;;;;;5055246;28;20452;-60
2022/04/17 11:00:26;;;;;;;4.93;2.27;;;21.30;42.40;;;;;;5055358;28;20429;-60
2022/04/17 11:02:54;;;;;;;3.10;2.10;;;21.20;41.60;;;;;;5055182;28;20449;-60
2022/04/17 11:06:08;;;;;;;2.27;2.07;;;21.30;42.40;;;;;;5055149;28;20441;-60
2022/04/17 11:08:24;;;;;;;2.43;2.23;;;21.40;42.10;;;;;;5054915;28;20461;-60
2022/04/17 11:10:54;;;;;;;2.00;1.80;;;21.40;40.70;;;;;;5055267;28;20485;-60
2022/04/17 11:13:21;;;;;;;2.93;1.90;;;21.70;40.40;;;;;;5055012;28;20418;-60
2022/04/17 11:15:53;;;;;;;1.80;1.70;;;21.20;39.80;;;;;;5054903;28;20460;-60
2022/04/17 11:18:23;;;;;;;2.13;1.80;;;21.60;40.20;;;;;;5055083;28;20466;-60
2022/04/17 11:20:54;;;;;;;2.33;2.03;;;21.90;40.50;;;;;;5055189;28;20445;-60
2022/04/17 11:23:58;;;;;;;2.43;1.70;;;21.50;40.30;;;;;;5055168;28;20491;-59
2022/04/17 11:27:13;;;;;;;2.10;1.90;;;21.20;40.40;;;;;;5054945;28;20460;-60
2022/04/17 11:29:43;;;;;;;2.50;1.90;;;20.50;39.90;;;;;;4993299;28;20516;-60
2022/04/17 11:32:49;;;;;;;6.30;2.13;;;21.20;40.50;;;;;;4992954;28;20484;-60
2022/04/17 11:35:18;;;;;;;3.07;2.43;;;20.90;40.30;;;;;;5037497;28;20892;-61
2022/04/17 11:37:53;;;;;;;2.57;2.37;;;20.30;39.60;;;;;;5054411;28;20552;-60
2022/04/17 11:40:22;;;;;;;5.77;2.20;;;20.30;41.40;;;;;;5054652;28;20802;-60
2022/04/17 11:42:50;;;;;;;2.33;2.00;;;20.80;39.70;;;;;;5054683;28;20462;-60
2022/04/17 11:45:20;;;;;;;2.80;2.07;;;21.30;40.20;;;;;;5054662;28;20445;-60
2022/04/17 11:47:50;;;;;;;2.30;2.10;;;21.20;40.00;;;;;;5054155;28;20476;-60
2022/04/17 11:50:23;;;;;;;3.93;2.63;;;21.20;40.10;;;;;;5054790;28;20485;-60
2022/04/17 11:52:51;;;;;;;2.73;2.53;;;21.00;39.30;;;;;;5054759;28;20452;-60
2022/04/17 11:55:24;;;;;;;3.17;2.43;;;20.80;41.30;;;;;;5054079;28;20815;-60
2022/04/17 11:57:51;;;;;;;2.40;2.20;;;21.50;41.30;;;;;;5054337;28;20472;-60
2022/04/17 12:00:18;;;;;;;3.03;2.20;;;20.20;40.10;;;;;;5054006;28;20449;-60
2022/04/17 12:02:46;;;;;;;2.33;2.00;;;20.40;40.20;;;;;;5054430;28;20448;-59
2022/04/17 12:05:16;;;;;;;2.70;2.13;;;20.70;39.40;;;;;;5054177;28;20445;-60
2022/04/17 12:07:45;;;;;;;3.53;2.30;;;20.60;39.30;;;;;;5054210;28;20552;-60
2022/04/17 12:10:14;;;;;;;2.90;2.10;;;20.10;39.40;;;;;;5054189;28;20487;-60
2022/04/17 12:12:43;;;;;;;2.40;2.13;;;20.50;41.20;;;;;;5053862;28;20449;-60
2022/04/17 12:15:11;;;;;;;3.67;2.30;;;20.30;40.90;;;;;;5054047;28;20453;-60
2022/04/17 12:17:39;;;;;;;2.97;2.20;;;20.70;39.20;;;;;;5053638;28;20476;-60
2022/04/17 12:20:12;;;;;;;2.00;1.80;;;20.70;40.20;;;;;;5053820;28;20445;-60
2022/04/17 12:22:42;;;;;;;2.10;2.00;;;21.00;39.80;;;;;;5053985;28;20448;-60
2022/04/17 12:25:17;;;;;;;5.33;2.17;;;21.30;40.30;;;;;;5053782;28;20548;-60
2022/04/17 12:27:46;;;;;;;2.50;2.30;;;21.10;40.40;;;;;;5053881;28;20469;-60
2022/04/17 12:30:14;;;;;;;2.83;2.30;;;20.20;39.80;;;;;;5053600;28;20491;-60
2022/04/17 12:32:45;;;;;;;2.93;2.00;;;20.00;40.80;;;;;;5053827;28;20432;-60
2022/04/17 12:35:14;;;;;;;3.70;1.90;;;20.60;40.10;;;;;;5053542;28;20449;-60
2022/04/17 12:37:42;;;;;;;2.23;2.00;;;21.20;40.50;;;;;;5053427;28;20967;-60
2022/04/17 12:40:11;;;;;;;2.23;2.03;;;21.10;39.80;;;;;;5053339;28;20480;-60
2022/04/17 12:42:39;;;;;;;3.17;2.40;;;21.20;40.40;;;;;;5053662;28;20540;-60
2022/04/17 12:45:08;;;;;;;2.40;2.20;;;20.70;39.60;;;;;;5053284;28;20493;-60
2022/04/17 12:47:36;;;;;;;3.37;2.10;;;20.70;40.20;;;;;;5053498;28;20504;-60
2022/04/17 12:50:04;;;;;;;4.27;2.07;;;21.20;38.90;;;;;;5053178;28;20477;-60
2022/04/17 12:52:32;;;;;;;2.90;1.90;;;20.50;39.20;;;;;;5053446;28;20496;-60
2022/04/17 12:55:07;;;;;;;2.37;2.00;;;20.60;40.60;;;;;;5053406;28;20457;-60
2022/04/17 12:57:34;;;;;;;3.40;2.30;;;20.10;39.40;;;;;;5053042;28;20555;-60
2022/04/17 13:00:02;;;;;;;3.23;2.13;;;20.30;40.20;;;;;;5053097;28;20528;-60
2022/04/17 13:02:29;;;;;;;3.97;2.17;;;20.50;39.80;;;;;;5053469;28;20460;-60
2022/04/17 13:04:59;;;;;;;1.90;1.80;;;20.70;40.30;;;;;;5053406;28;20460;-60
2022/04/17 13:07:34;;;;;;;2.20;2.00;;;20.20;39.70;;;;;;5052112;28;20469;-60
2022/04/17 13:10:04;;;;;;;3.00;2.30;;;20.00;39.60;;;;;;5052958;28;20465;-59
2022/04/17 13:12:33;;;;;;;2.73;1.80;;;19.40;40.20;;;;;;5052987;28;20993;-59
2022/04/17 13:15:02;;;;;;;2.40;1.77;;;19.70;41.60;;;;;;5052988;28;20983;-59
2022/04/17 13:17:29;;;;;;;3.10;2.43;;;19.90;40.10;;;;;;5052851;28;20548;-59
2022/04/17 13:19:56;;;;;;;3.00;2.57;;;19.80;40.00;;;;;;5053215;28;20453;-59
2022/04/17 13:22:23;;;;;;;3.70;1.73;;;19.40;39.80;;;;;;5052948;28;20474;-59